createdAt,value
2023-08-28T00:00:48.790Z,56.33
2023-08-28T00:03:16.390Z,56.33
2023-08-28T00:05:43.880Z,56.31
2023-08-28T00:08:11.577Z,56.46
2023-08-28T00:10:41.302Z,56.42
2023-08-28T00:13:08.764Z,56.43
2023-08-28T00:15:35.930Z,56.54
2023-08-28T00:18:03.231Z,56.61
2023-08-28T00:20:30.474Z,56.57
2023-08-28T00:22:57.604Z,56.74
2023-08-28T00:25:24.368Z,56.55
2023-08-28T00:27:51.928Z,56.61
2023-08-28T00:30:19.231Z,56.69
2023-08-28T00:32:46.423Z,56.82
2023-08-28T00:35:13.683Z,56.95
2023-08-28T00:37:40.522Z,56.89
2023-08-28T00:40:08.954Z,56.99
2023-08-28T00:42:36.357Z,57.17
2023-08-28T00:45:04.244Z,57.20
2023-08-28T00:47:31.070Z,57.38
2023-08-28T00:49:58.907Z,57.31
2023-08-28T00:52:26.028Z,57.35
2023-08-28T00:54:52.867Z,57.44
2023-08-28T00:57:20.111Z,57.40
2023-08-28T00:59:47.638Z,57.55
2023-08-28T01:02:14.498Z,57.50
2023-08-28T01:04:41.732Z,57.53
2023-08-28T01:07:27.899Z,57.61
2023-08-28T01:09:58.373Z,57.87
2023-08-28T01:12:54.961Z,58.03
2023-08-28T01:15:25.023Z,57.96
2023-08-28T01:17:57.278Z,57.91
2023-08-28T01:20:26.519Z,58.19
2023-08-28T01:23:06.215Z,58.06
2023-08-28T01:25:33.979Z,58.21
2023-08-28T01:28:01.438Z,58.26
2023-08-28T01:30:28.412Z,58.37
2023-08-28T01:32:55.673Z,58.25
2023-08-28T01:35:26.020Z,58.10
2023-08-28T01:38:20.972Z,58.36
2023-08-28T01:40:51.349Z,58.28
2023-08-28T01:43:24.171Z,58.17
2023-08-28T01:45:54.854Z,58.27
2023-08-28T01:48:22.075Z,58.18
2023-08-28T01:50:49.248Z,58.10
2023-08-28T01:53:16.859Z,58.04
2023-08-28T01:55:46.981Z,58.08
2023-08-28T01:58:14.433Z,58.15
2023-08-28T02:00:41.487Z,58.09
2023-08-28T02:03:11.324Z,58.04
2023-08-28T02:05:38.557Z,58.04
2023-08-28T02:08:06.014Z,58.02
2023-08-28T02:10:33.492Z,57.96
2023-08-28T02:13:00.629Z,57.90
2023-08-28T02:15:28.101Z,57.86
2023-08-28T02:17:55.609Z,57.95
2023-08-28T02:20:23.149Z,57.98
2023-08-28T02:22:50.289Z,57.99
2023-08-28T02:25:21.844Z,57.98
2023-08-28T02:27:49.739Z,57.98
2023-08-28T02:30:17.490Z,58.14
2023-08-28T02:32:45.749Z,58.19
2023-08-28T02:35:13.047Z,58.23
2023-08-28T02:37:40.372Z,58.25
2023-08-28T02:40:08.367Z,58.33
2023-08-28T02:42:35.485Z,58.29
2023-08-28T02:45:02.705Z,58.34
2023-08-28T02:47:29.987Z,58.30
2023-08-28T02:49:57.136Z,58.18
2023-08-28T02:52:24.255Z,58.33
2023-08-28T02:54:51.081Z,58.50
2023-08-28T02:57:18.704Z,58.50
2023-08-28T02:59:45.679Z,58.55
2023-08-28T03:02:12.811Z,58.49
2023-08-28T03:04:40.354Z,58.51
2023-08-28T03:07:07.425Z,58.44
2023-08-28T03:09:34.577Z,58.47
2023-08-28T03:12:02.050Z,58.47
2023-08-28T03:14:28.880Z,58.52
2023-08-28T03:16:55.695Z,58.49
2023-08-28T03:19:23.106Z,58.59
2023-08-28T03:21:50.204Z,58.57
2023-08-28T03:24:19.007Z,58.63
2023-08-28T03:26:47.656Z,58.60
2023-08-28T03:29:14.750Z,58.76
2023-08-28T03:31:41.915Z,58.81
2023-08-28T03:34:09.628Z,58.73
2023-08-28T03:36:36.422Z,58.70
2023-08-28T03:39:03.881Z,58.73
2023-08-28T03:41:33.169Z,58.74
2023-08-28T03:44:00.434Z,58.89
2023-08-28T03:46:27.795Z,58.84
2023-08-28T03:48:55.294Z,58.86
2023-08-28T03:51:22.473Z,58.80
2023-08-28T03:53:49.203Z,58.73
2023-08-28T03:56:16.351Z,58.81
2023-08-28T03:58:43.471Z,58.98
2023-08-28T04:01:10.712Z,58.93
2023-08-28T04:03:37.911Z,59.00
2023-08-28T04:06:05.465Z,59.03
2023-08-28T04:08:32.297Z,59.14
2023-08-28T04:11:00.208Z,59.22
2023-08-28T04:13:27.761Z,59.18
2023-08-28T04:15:54.558Z,59.14
2023-08-28T04:18:21.655Z,59.13
2023-08-28T04:20:49.191Z,59.22
2023-08-28T04:23:16.649Z,59.24
2023-08-28T04:25:43.484Z,59.31
2023-08-28T04:28:10.944Z,59.33
2023-08-28T04:30:38.660Z,59.31
2023-08-28T04:33:07.431Z,59.40
2023-08-28T04:35:34.987Z,59.31
2023-08-28T04:38:02.185Z,59.32
2023-08-28T04:40:29.348Z,59.39
2023-08-28T04:42:57.046Z,59.43
2023-08-28T04:45:24.269Z,59.35
2023-08-28T04:47:51.141Z,59.43
2023-08-28T04:50:18.610Z,59.41
2023-08-28T04:52:45.410Z,59.40
2023-08-28T04:55:12.592Z,59.33
2023-08-28T04:57:39.681Z,59.43
2023-08-28T05:00:07.795Z,59.43
2023-08-28T05:02:36.239Z,59.47
2023-08-28T05:05:04.249Z,59.44
2023-08-28T05:07:31.633Z,59.32
2023-08-28T05:09:58.440Z,59.47
2023-08-28T05:12:25.907Z,59.44
2023-08-28T05:14:53.337Z,59.44
2023-08-28T05:17:20.094Z,59.46
2023-08-28T05:19:47.190Z,59.54
2023-08-28T05:22:14.253Z,59.61
2023-08-28T05:24:41.871Z,59.50
2023-08-28T05:27:09.951Z,59.50
2023-08-28T05:29:36.776Z,59.50
2023-08-28T05:32:04.397Z,59.48
2023-08-28T05:34:32.769Z,59.41
2023-08-28T05:36:59.881Z,59.35
2023-08-28T05:39:26.646Z,59.52
2023-08-28T05:41:54.053Z,59.61
2023-08-28T05:44:21.503Z,59.50
2023-08-28T05:46:49.367Z,59.42
2023-08-28T05:49:17.137Z,59.38
2023-08-28T05:51:44.703Z,59.34
2023-08-28T05:54:12.123Z,59.28
2023-08-28T05:56:38.974Z,59.25
2023-08-28T05:59:06.971Z,59.26
2023-08-28T06:01:34.378Z,59.16
2023-08-28T06:04:01.506Z,59.15
2023-08-28T06:06:28.313Z,59.19
2023-08-28T06:08:55.711Z,59.23
2023-08-28T06:11:23.180Z,59.10
2023-08-28T06:13:50.707Z,59.02
2023-08-28T06:16:18.206Z,58.97
2023-08-28T06:18:45.681Z,58.83
2023-08-28T06:21:13.147Z,58.69
2023-08-28T06:23:40.201Z,58.66
2023-08-28T06:26:07.654Z,58.55
2023-08-28T06:28:34.771Z,58.56
2023-08-28T06:31:05.276Z,58.49
2023-08-28T06:33:32.758Z,58.43
2023-08-28T06:35:59.522Z,58.42
2023-08-28T06:38:26.620Z,58.42
2023-08-28T06:40:54.186Z,58.32
2023-08-28T06:43:21.377Z,58.33
2023-08-28T06:45:48.503Z,58.29
2023-08-28T06:48:15.983Z,58.33
2023-08-28T06:50:43.095Z,58.24
2023-08-28T06:53:10.188Z,58.13
2023-08-28T06:55:37.402Z,58.08
2023-08-28T06:58:04.933Z,57.99
2023-08-28T07:00:32.106Z,57.93
2023-08-28T07:03:00.038Z,57.92
2023-08-28T07:05:27.270Z,57.97
2023-08-28T07:07:54.478Z,57.85
2023-08-28T07:10:21.983Z,57.72
2023-08-28T07:12:48.795Z,57.61
2023-08-28T07:15:18.664Z,57.56
2023-08-28T07:17:46.359Z,57.52
2023-08-28T07:20:13.194Z,57.53
2023-08-28T07:22:40.669Z,57.42
2023-08-28T07:25:08.270Z,57.34
2023-08-28T07:27:35.570Z,57.24
2023-08-28T07:30:05.452Z,57.09
2023-08-28T07:32:34.019Z,57.03
2023-08-28T07:35:01.505Z,56.76
2023-08-28T07:37:32.122Z,56.89
2023-08-28T07:39:59.187Z,56.73
2023-08-28T07:42:26.490Z,56.75
2023-08-28T07:44:53.987Z,56.58
2023-08-28T07:47:21.651Z,56.51
2023-08-28T07:49:48.622Z,56.39
2023-08-28T07:52:16.106Z,56.33
2023-08-28T07:54:42.970Z,56.25
2023-08-28T07:57:10.490Z,56.24
2023-08-28T07:59:37.525Z,56.12
2023-08-28T08:02:05.826Z,56.03
2023-08-28T08:04:33.813Z,55.97
2023-08-28T08:07:01.927Z,55.88
2023-08-28T08:09:29.027Z,55.79
2023-08-28T08:11:56.391Z,55.71
2023-08-28T08:14:24.615Z,55.57
2023-08-28T08:16:51.483Z,55.45
2023-08-28T08:19:18.861Z,55.41
2023-08-28T08:21:45.960Z,55.39
2023-08-28T08:24:12.773Z,55.26
2023-08-28T08:26:39.967Z,55.24
2023-08-28T08:29:07.361Z,55.13
2023-08-28T08:31:34.226Z,55.09
2023-08-28T08:34:01.413Z,55.07
2023-08-28T08:36:28.829Z,54.91
2023-08-28T08:38:55.598Z,54.75
2023-08-28T08:41:22.910Z,54.61
2023-08-28T08:43:50.013Z,54.61
2023-08-28T08:46:18.700Z,54.44
2023-08-28T08:48:47.462Z,54.32
2023-08-28T08:51:16.965Z,54.25
2023-08-28T08:54:06.243Z,54.17
2023-08-28T08:56:35.615Z,54.14
2023-08-28T08:59:04.598Z,54.10
2023-08-28T09:01:32.553Z,53.95
2023-08-28T09:04:03.432Z,53.95
2023-08-28T09:06:33.953Z,53.91
2023-08-28T09:11:38.931Z,53.91
2023-08-28T09:14:07.262Z,53.80
2023-08-28T09:16:36.010Z,53.67
2023-08-28T09:19:03.522Z,53.62
2023-08-28T09:21:39.223Z,53.65
2023-08-28T09:24:12.887Z,53.50
2023-08-28T09:26:40.237Z,53.39
2023-08-28T09:29:08.886Z,53.31
2023-08-28T09:31:38.260Z,53.27
2023-08-28T09:34:08.047Z,53.20
2023-08-28T09:36:40.625Z,53.22
2023-08-28T09:39:10.648Z,53.13
2023-08-28T09:41:47.174Z,53.02
2023-08-28T09:44:16.862Z,53.02
2023-08-28T09:46:45.613Z,52.99
2023-08-28T09:49:14.559Z,52.88
2023-08-28T09:51:58.389Z,52.87
2023-08-28T09:54:25.527Z,52.77
2023-08-28T09:56:54.108Z,52.71
2023-08-28T09:59:20.958Z,52.76
2023-08-28T10:01:48.877Z,52.64
2023-08-28T10:04:21.075Z,52.66
2023-08-28T10:06:53.295Z,52.59
2023-08-28T10:09:23.596Z,52.44
2023-08-28T10:11:52.229Z,52.40
2023-08-28T10:14:22.058Z,52.34
2023-08-28T10:17:00.711Z,52.27
2023-08-28T10:19:38.230Z,52.15
2023-08-28T10:22:08.494Z,52.02
2023-08-28T10:24:42.764Z,51.99
2023-08-28T10:27:12.155Z,51.96
2023-08-28T10:29:40.880Z,51.86
2023-08-28T10:32:10.916Z,51.78
2023-08-28T10:34:41.409Z,51.92
2023-08-28T10:37:26.384Z,51.74
2023-08-28T10:40:02.689Z,51.71
2023-08-28T10:42:31.249Z,51.61
2023-08-28T10:44:59.760Z,51.42
2023-08-28T10:47:29.024Z,51.39
2023-08-28T10:49:59.566Z,51.33
2023-08-28T10:52:28.350Z,51.38
2023-08-28T10:54:58.738Z,51.27
2023-08-28T10:57:28.843Z,51.24
2023-08-28T10:59:56.543Z,51.21
2023-08-28T11:02:24.222Z,51.28
2023-08-28T11:04:51.724Z,51.27
2023-08-28T11:07:32.452Z,51.22
2023-08-28T11:10:32.439Z,51.15
2023-08-28T11:13:07.590Z,51.14
2023-08-28T11:15:39.615Z,51.05
2023-08-28T11:18:28.663Z,51.15
2023-08-28T11:21:01.191Z,50.99
2023-08-28T11:23:40.860Z,50.87
2023-08-28T11:26:27.446Z,50.88
2023-08-28T11:28:54.591Z,50.88
2023-08-28T11:31:21.862Z,50.81
2023-08-28T11:33:51.016Z,50.73
2023-08-28T11:36:26.962Z,50.63
2023-08-28T11:38:56.089Z,50.52
2023-08-28T11:41:24.186Z,50.48
2023-08-28T11:43:51.395Z,50.42
2023-08-28T11:46:18.830Z,50.40
2023-08-28T11:48:46.779Z,50.35
2023-08-28T11:51:14.365Z,50.24
2023-08-28T11:53:43.954Z,50.26
2023-08-28T11:56:13.544Z,50.25
2023-08-28T11:58:43.131Z,50.17
2023-08-28T12:01:12.209Z,49.90
2023-08-28T12:03:42.095Z,49.90
2023-08-28T12:06:10.536Z,49.96
2023-08-28T12:08:43.024Z,49.53
2023-08-28T12:11:12.097Z,49.48
2023-08-28T12:13:39.769Z,49.73
2023-08-28T12:16:21.170Z,49.93
2023-08-28T12:18:52.989Z,49.86
2023-08-28T12:21:33.606Z,49.70
2023-08-28T12:24:00.880Z,49.68
2023-08-28T12:26:27.982Z,49.36
2023-08-28T12:28:55.178Z,49.45
2023-08-28T12:31:33.871Z,49.50
2023-08-28T12:34:11.334Z,49.60
2023-08-28T12:36:40.490Z,49.63
2023-08-28T12:39:10.348Z,49.57
2023-08-28T12:41:48.757Z,49.07
2023-08-28T12:44:15.982Z,49.37
2023-08-28T12:46:43.266Z,49.39
2023-08-28T12:49:12.360Z,49.23
2023-08-28T12:51:41.124Z,49.18
2023-08-28T12:54:08.017Z,49.09
2023-08-28T12:56:36.322Z,49.24
2023-08-28T12:59:03.793Z,49.23
2023-08-28T13:01:31.009Z,49.06
2023-08-28T13:03:58.260Z,49.10
2023-08-28T13:06:25.501Z,49.14
2023-08-28T13:08:53.129Z,49.22
2023-08-28T13:11:20.344Z,49.23
2023-08-28T13:13:48.513Z,49.28
2023-08-28T13:16:16.419Z,49.29
2023-08-28T13:18:43.281Z,49.32
2023-08-28T13:21:12.306Z,49.36
2023-08-28T13:23:39.117Z,49.33
2023-08-28T13:26:05.935Z,49.28
2023-08-28T13:28:33.427Z,49.40
2023-08-28T13:31:00.533Z,49.34
2023-08-28T13:33:27.406Z,49.48
2023-08-28T13:35:54.989Z,49.57
2023-08-28T13:38:23.078Z,49.62
2023-08-28T13:40:50.370Z,49.68
2023-08-28T13:43:17.600Z,49.72
2023-08-28T13:45:44.735Z,49.83
2023-08-28T13:48:11.534Z,49.78
2023-08-28T13:50:41.022Z,49.81
2023-08-28T13:53:09.259Z,49.75
2023-08-28T13:55:37.748Z,49.57
2023-08-28T13:58:05.464Z,49.25
2023-08-28T14:00:32.335Z,49.25
2023-08-28T14:02:59.280Z,49.28
2023-08-28T14:05:26.790Z,49.13
2023-08-28T14:07:54.793Z,49.07
2023-08-28T14:10:21.780Z,49.05
2023-08-28T14:12:49.931Z,49.00
2023-08-28T14:15:17.069Z,49.00
2023-08-28T14:17:44.492Z,49.08
2023-08-28T14:20:12.120Z,49.10
2023-08-28T14:22:39.609Z,49.20
2023-08-28T14:25:07.349Z,49.26
2023-08-28T14:27:46.391Z,49.26
2023-08-28T14:30:19.087Z,49.39
2023-08-28T14:32:47.397Z,49.47
2023-08-28T14:35:16.900Z,49.53
2023-08-28T14:37:44.564Z,49.57
2023-08-28T14:40:11.611Z,49.55
2023-08-28T14:42:38.600Z,49.58
2023-08-28T14:45:06.777Z,49.70
2023-08-28T14:47:33.997Z,49.70
2023-08-28T14:50:00.904Z,49.78
2023-08-28T14:52:28.559Z,49.69
2023-08-28T14:54:56.297Z,49.77
2023-08-28T14:57:23.483Z,49.80
2023-08-28T14:59:50.915Z,49.85
2023-08-28T15:02:19.281Z,49.88
2023-08-28T15:04:46.451Z,49.93
2023-08-28T15:07:14.312Z,49.90
2023-08-28T15:09:43.874Z,49.93
2023-08-28T15:12:12.153Z,49.87
2023-08-28T15:14:41.304Z,49.99
2023-08-28T15:17:08.579Z,49.81
2023-08-28T15:19:35.803Z,49.95
2023-08-28T15:22:03.315Z,49.92
2023-08-28T15:24:32.960Z,50.01
2023-08-28T15:27:00.192Z,50.02
2023-08-28T15:29:27.511Z,49.96
2023-08-28T15:31:54.345Z,50.00
2023-08-28T15:34:21.632Z,50.12
2023-08-28T15:36:48.904Z,50.23
2023-08-28T15:39:16.364Z,50.21
2023-08-28T15:41:43.282Z,50.46
2023-08-28T15:44:11.048Z,50.38
2023-08-28T15:46:38.194Z,50.43
2023-08-28T15:49:05.599Z,50.60
2023-08-28T15:51:32.790Z,50.57
2023-08-28T15:54:00.308Z,50.71
2023-08-28T15:56:27.839Z,50.70
2023-08-28T15:59:08.426Z,50.78
2023-08-28T16:01:41.830Z,50.70
2023-08-28T16:04:08.872Z,50.85
2023-08-28T16:06:36.168Z,50.81
2023-08-28T16:09:04.877Z,50.92
2023-08-28T16:11:35.706Z,50.95
2023-08-28T16:14:03.655Z,51.03
2023-08-28T16:16:31.423Z,51.03
2023-08-28T16:19:03.031Z,51.01
2023-08-28T16:21:32.498Z,51.09
2023-08-28T16:24:00.664Z,51.19
2023-08-28T16:26:28.221Z,51.24
2023-08-28T16:28:55.627Z,51.36
2023-08-28T16:31:23.307Z,51.36
2023-08-28T16:33:50.865Z,51.47
2023-08-28T16:36:18.027Z,51.49
2023-08-28T16:38:45.605Z,51.60
2023-08-28T16:41:13.137Z,51.58
2023-08-28T16:43:39.960Z,51.56
2023-08-28T16:46:08.079Z,51.59
2023-08-28T16:48:35.429Z,51.70
2023-08-28T16:51:02.722Z,51.65
2023-08-28T16:53:30.368Z,51.68
2023-08-28T16:55:58.024Z,51.67
2023-08-28T16:58:25.915Z,51.77
2023-08-28T17:00:53.559Z,51.84
2023-08-28T17:03:21.511Z,51.83
2023-08-28T17:05:55.615Z,51.86
2023-08-28T17:08:23.653Z,51.89
2023-08-28T17:10:50.910Z,52.04
2023-08-28T17:13:18.726Z,52.07
2023-08-28T17:15:46.806Z,52.10
2023-08-28T17:18:14.142Z,52.14
2023-08-28T17:20:42.258Z,52.17
2023-08-28T17:23:10.243Z,52.19
2023-08-28T17:25:37.910Z,52.21
2023-08-28T17:28:06.514Z,52.27
2023-08-28T17:30:33.814Z,52.30
2023-08-28T17:33:00.828Z,52.35
2023-08-28T17:35:31.631Z,52.42
2023-08-28T17:37:59.746Z,52.46
2023-08-28T17:40:27.964Z,52.60
2023-08-28T17:42:55.429Z,52.69
2023-08-28T17:45:22.719Z,52.71
2023-08-28T17:47:49.938Z,52.68
2023-08-28T17:50:17.694Z,52.76
2023-08-28T17:52:44.982Z,52.82
2023-08-28T17:55:12.442Z,52.95
2023-08-28T17:57:40.285Z,53.01
2023-08-28T18:00:11.296Z,53.11
2023-08-28T18:02:57.720Z,53.12
2023-08-28T18:05:26.728Z,53.17
2023-08-28T18:07:54.162Z,53.27
2023-08-28T18:10:21.735Z,53.27
2023-08-28T18:12:49.475Z,53.29
2023-08-28T18:15:19.092Z,53.31
2023-08-28T18:17:48.047Z,53.49
2023-08-28T18:20:16.062Z,53.58
2023-08-28T18:22:43.619Z,53.54
2023-08-28T18:25:11.712Z,53.61
2023-08-28T18:27:52.878Z,53.61
2023-08-28T18:30:27.985Z,53.61
2023-08-28T18:32:55.373Z,53.74
2023-08-28T18:35:23.472Z,53.69
2023-08-28T18:37:51.330Z,53.77
2023-08-28T18:40:18.904Z,53.82
2023-08-28T18:42:46.797Z,53.86
2023-08-28T18:45:14.475Z,53.89
2023-08-28T18:47:42.265Z,53.79
2023-08-28T18:50:10.260Z,53.90
2023-08-28T18:52:37.460Z,54.00
2023-08-28T18:55:06.504Z,53.99
2023-08-28T18:57:38.624Z,54.02
2023-08-28T19:00:08.288Z,54.09
2023-08-28T19:02:36.365Z,54.12
2023-08-28T19:05:04.348Z,54.13
2023-08-28T19:07:32.048Z,54.28
2023-08-28T19:09:59.796Z,54.35
2023-08-28T19:12:29.341Z,54.41
2023-08-28T19:14:57.723Z,54.54
2023-08-28T19:17:27.096Z,54.65
2023-08-28T19:19:54.853Z,54.66
2023-08-28T19:22:24.698Z,54.77
2023-08-28T19:24:52.207Z,54.93
2023-08-28T19:27:20.843Z,54.94
2023-08-28T19:29:48.997Z,55.04
2023-08-28T19:32:16.995Z,55.12
2023-08-28T19:34:45.216Z,55.14
2023-08-28T19:37:12.392Z,55.15
2023-08-28T19:39:40.224Z,55.08
2023-08-28T19:42:08.434Z,55.07
2023-08-28T19:44:35.730Z,55.04
2023-08-28T19:47:05.072Z,55.00
2023-08-28T19:49:34.769Z,55.14
2023-08-28T19:52:04.307Z,55.04
2023-08-28T19:54:32.210Z,55.19
2023-08-28T19:56:59.866Z,55.25
2023-08-28T19:59:27.915Z,55.22
2023-08-28T20:01:55.588Z,55.18
2023-08-28T20:04:26.387Z,55.14
2023-08-28T20:06:54.079Z,55.23
2023-08-28T20:09:21.510Z,55.26
2023-08-28T20:11:49.061Z,55.32
2023-08-28T20:14:17.545Z,55.40
2023-08-28T20:16:45.699Z,55.38
2023-08-28T20:19:13.304Z,55.31
2023-08-28T20:21:41.488Z,55.47
2023-08-28T20:24:10.765Z,55.31
2023-08-28T20:26:38.947Z,55.40
2023-08-28T20:29:07.089Z,55.52
2023-08-28T20:31:34.930Z,55.43
2023-08-28T20:34:03.036Z,55.38
2023-08-28T20:36:31.030Z,55.38
2023-08-28T20:38:58.417Z,55.47
2023-08-28T20:41:26.607Z,55.46
2023-08-28T20:43:54.594Z,55.62
2023-08-28T20:46:22.377Z,55.63
2023-08-28T20:48:50.337Z,55.65
2023-08-28T20:51:18.233Z,55.60
2023-08-28T20:53:45.728Z,55.63
2023-08-28T20:56:13.114Z,55.55
2023-08-28T20:58:40.860Z,55.52
2023-08-28T21:01:08.095Z,55.56
2023-08-28T21:03:37.097Z,55.54
2023-08-28T21:06:04.590Z,55.56
2023-08-28T21:08:31.756Z,55.59
2023-08-28T21:11:01.230Z,55.70
2023-08-28T21:13:29.044Z,55.75
2023-08-28T21:15:59.951Z,56.05
2023-08-28T21:18:27.856Z,56.06
2023-08-28T21:20:55.227Z,56.11
2023-08-28T21:23:22.010Z,56.23
2023-08-28T21:25:49.216Z,56.37
2023-08-28T21:28:16.935Z,56.46
2023-08-28T21:30:46.830Z,56.52
2023-08-28T21:33:14.002Z,56.67
2023-08-28T21:35:41.130Z,56.98
2023-08-28T21:38:08.682Z,57.02
2023-08-28T21:40:35.757Z,57.05
2023-08-28T21:43:02.851Z,57.04
2023-08-28T21:45:29.931Z,57.18
2023-08-28T21:47:56.755Z,57.31
2023-08-28T21:50:23.846Z,57.44
2023-08-28T21:52:50.933Z,57.65
2023-08-28T21:55:18.036Z,57.91
2023-08-28T21:57:45.133Z,58.17
2023-08-28T22:00:13.205Z,58.57
2023-08-28T22:02:40.414Z,58.68
2023-08-28T22:05:08.512Z,58.77
2023-08-28T22:07:36.037Z,58.85
2023-08-28T22:10:03.211Z,59.31
2023-08-28T22:12:30.157Z,59.12
2023-08-28T22:14:59.962Z,59.16
2023-08-28T22:17:28.845Z,59.19
2023-08-28T22:19:55.612Z,59.17
2023-08-28T22:22:22.890Z,59.08
2023-08-28T22:24:49.946Z,59.12
2023-08-28T22:27:16.715Z,59.26
2023-08-28T22:29:49.712Z,59.44
2023-08-28T22:32:17.145Z,59.60
2023-08-28T22:34:44.255Z,59.64
2023-08-28T22:37:11.052Z,59.81
2023-08-28T22:39:38.117Z,59.87
2023-08-28T22:42:05.442Z,60.02
2023-08-28T22:44:32.896Z,60.02
2023-08-28T22:46:59.952Z,60.16
2023-08-28T22:49:27.156Z,60.08
2023-08-28T22:51:54.265Z,60.21
2023-08-28T22:54:21.405Z,60.57
2023-08-28T22:56:48.149Z,60.86
2023-08-28T22:59:15.585Z,60.78
2023-08-28T23:01:42.568Z,60.79
2023-08-28T23:04:09.342Z,60.80
2023-08-28T23:06:36.796Z,61.06
2023-08-28T23:09:04.614Z,61.21
2023-08-28T23:11:31.413Z,61.39
2023-08-28T23:13:58.502Z,61.26
2023-08-28T23:16:26.131Z,61.63
2023-08-28T23:18:53.276Z,61.43
2023-08-28T23:21:20.057Z,61.57
2023-08-28T23:23:47.503Z,61.60
2023-08-28T23:26:14.610Z,61.58
2023-08-28T23:28:42.004Z,61.68
2023-08-28T23:31:08.783Z,61.68
2023-08-28T23:33:35.591Z,61.63
2023-08-28T23:36:03.062Z,61.68
2023-08-28T23:38:30.470Z,61.73
2023-08-28T23:40:58.309Z,61.61
2023-08-28T23:43:25.557Z,61.51
2023-08-28T23:45:52.885Z,61.70
2023-08-28T23:48:20.172Z,61.64
2023-08-28T23:50:47.317Z,61.95
2023-08-28T23:53:15.033Z,61.95
2023-08-28T23:55:41.827Z,61.95
2023-08-28T23:58:08.686Z,61.92
